Flight Track Log - Related Links

Times and Time Zones

All times are in EDT time to prevent confusion due to time zone crossing. See the JBU231 flight status page for this flight to view local times or setup timezone preferences in your user account.

Time Position Orientation Groundspeed Altitude Reporting Facility
EDT Latitude Longitude Course Direction KTS MPH feet Rate Location/Type
Mon 01:58:22 PM 40.8153 -111.9792 208° Southwest 170 196 5,200  Level Salt Lake Center
Mon 01:58:58 PM 40.8342 -112.0097 309° West 188 216 5,900 1,237 Climbing Salt Lake Center
Mon 01:59:59 PM 40.8294 -112.0964 266° West 260 299 7,200 1,907 Climbing Salt Lake Center
Mon 02:00:00 PM 40.3988 -112.3337 191° South  Level FlightAware Approximate
Mon 02:01:00 PM 40.2893 -112.3738 207° Southwest  Level FlightAware Approximate
Mon 02:01:07 PM 40.8150 -112.1983 259° West 273 314 10,000  Level Salt Lake Center
Mon 02:02:00 PM 40.1928 -112.4500 180° South  Level FlightAware Approximate
Mon 02:02:09 PM 40.7606 -112.2742 227° Southwest 299 344 11,000  Level Salt Lake Center
Mon 02:03:00 PM 40.0928 -112.5185 208° Southwest  Level FlightAware Approximate
Mon 02:03:11 PM 40.6711 -112.2964 191° South 333 383 11,100  Level Salt Lake Center
Mon 02:04:14 PM 40.5772 -112.3094 186° South 342 394 13,700 2,736 Climbing Salt Lake Center
Mon 02:05:16 PM 40.4650 -112.3322 189° South 341 392 16,800 2,419 Climbing Salt Lake Center
Mon 02:06:18 PM 40.3697 -112.3536 190° South 345 397 18,700 1,597 Climbing Salt Lake Center
Mon 02:07:20 PM 40.2719 -112.4058 202° Southwest 386 444 20,100 1,597 Climbing Salt Lake Center
Mon 02:08:22 PM 40.1753 -112.4750 209° Southwest 396 456 22,000 1,645 Climbing Salt Lake Center
Mon 02:09:24 PM 40.0769 -112.5439 208° Southwest 401 461 23,500 1,645 Climbing Salt Lake Center
Mon 02:10:26 PM 39.9772 -112.6144 208° Southwest 407 468 25,400 1,645 Climbing Salt Lake Center
Mon 02:11:28 PM 39.8519 -112.7014 208° Southwest 424 488 26,900 1,452 Climbing Salt Lake Center
Mon 02:12:30 PM 39.7469 -112.7733 208° Southwest 425 489 28,400 1,258 Climbing Salt Lake Center
Mon 02:13:32 PM 39.6347 -112.8358 203° Southwest 435 501 29,500 1,440 Climbing Salt Lake Center
Mon 02:14:35 PM 39.5136 -112.8739 194° South 448 516 31,400 1,488 Climbing Salt Lake Center
Mon 02:15:37 PM 39.3981 -112.9133 195° South 432 497 32,600 1,258 Climbing Salt Lake Center
Mon 02:16:39 PM 39.2575 -112.9594 194° South 433 498 34,000 1,161 Climbing Salt Lake Center
Mon 02:17:41 PM 39.1403 -112.9956 193° South 430 495 35,000 484 Climbing Salt Lake Center
Mon 02:18:43 PM 39.0281 -113.0375 196° South 427 491 35,000  Level Salt Lake Center
Mon 02:19:45 PM 38.9125 -113.0717 193° South 426 490 35,000  Level Salt Lake Center
Mon 02:20:47 PM 38.7972 -113.1075 194° South 427 491 35,000 97 Level Salt Lake Center
Mon 02:21:49 PM 38.6831 -113.1458 195° South 427 491 35,200 484 Climbing Salt Lake Center
Mon 02:22:51 PM 38.5431 -113.1858 193° South 427 491 36,000 387 Climbing Salt Lake Center
Mon 02:23:53 PM 38.4283 -113.2217 194° South 427 491 36,000  Level Salt Lake Center
Mon 02:24:55 PM 38.3028 -113.2617 194° South 427 491 36,000  Level Salt Lake Center
Mon 02:25:58 PM 38.1858 -113.2986 194° South 428 493 36,000  Level Salt Lake Center
Mon 02:27:00 PM 38.0692 -113.3353 194° South 431 496 36,000  Level Salt Lake Center
Mon 02:28:02 PM 37.9508 -113.3708 193° South 431 496 36,000  Level Salt Lake Center
Mon 02:29:04 PM 37.8397 -113.4294 203° Southwest 431 496 36,000  Level Salt Lake Center
Mon 02:30:06 PM 37.7419 -113.5128 214° Southwest 429 494 36,000  Level Salt Lake Center
Mon 02:31:08 PM 37.6208 -113.6089 212° Southwest 426 490 36,000  Level Salt Lake Center
Mon 02:32:10 PM 37.5206 -113.6894 213° Southwest 426 490 36,000  Level Salt Lake Center
Mon 02:33:12 PM 37.4181 -113.7689 212° Southwest 427 491 36,000  Level Salt Lake Center
Mon 02:34:14 PM 37.3175 -113.8503 213° Southwest 427 491 36,000  Level Salt Lake Center
Mon 02:35:17 PM 37.2147 -113.9281 211° Southwest 427 491 36,000  Level Salt Lake Center
Mon 02:36:19 PM 37.1147 -114.0075 212° Southwest 427 491 36,000  Level Salt Lake Center
Mon 02:37:21 PM 37.0128 -114.0869 212° Southwest 428 493 36,000  Level Salt Lake Center
Mon 02:38:23 PM 36.8903 -114.1811 212° Southwest 428 493 36,000  Level Salt Lake Center
Mon 02:39:25 PM 36.7881 -114.2606 212° Southwest 428 493 36,000  Level Salt Lake Center
Mon 02:40:48 PM 36.6439 -114.3689 211° Southwest 429 494 36,000  Level Los Angeles Center
Mon 02:41:50 PM 36.5422 -114.4481 212° Southwest 429 494 36,000  Level Los Angeles Center
Mon 02:42:53 PM 36.4386 -114.5267 211° Southwest 430 495 36,000  Level Los Angeles Center
Mon 02:43:55 PM 36.3372 -114.6044 212° Southwest 430 495 36,000  Level Los Angeles Center
Mon 02:44:57 PM 36.2344 -114.6814 211° Southwest 430 495 36,000  Level Los Angeles Center
Mon 02:45:59 PM 36.1331 -114.7592 212° Southwest 430 495 36,000  Level Los Angeles Center
Mon 02:47:01 PM 36.0114 -114.8533 212° Southwest 429 494 36,000  Level Los Angeles Center
Mon 02:48:04 PM 35.9281 -114.9547 225° Southwest 421 484 36,000  Level Los Angeles Center
Mon 02:49:06 PM 35.8497 -115.0622 228° Southwest 420 483 36,000  Level Los Angeles Center
Mon 02:50:08 PM 35.7706 -115.1697 228° Southwest 420 483 36,000  Level Los Angeles Center
Mon 02:51:10 PM 35.6906 -115.2783 228° Southwest 424 488 36,000  Level Los Angeles Center
Mon 02:52:13 PM 35.6103 -115.3856 227° Southwest 424 488 36,000  Level Los Angeles Center
Mon 02:53:15 PM 35.5156 -115.5139 228° Southwest 422 486 36,000  Level Los Angeles Center
Mon 02:54:17 PM 35.4458 -115.6067 227° Southwest 420 483 36,000 -242 Level Los Angeles Center
Mon 02:55:19 PM 35.3675 -115.7100 227° Southwest 418 481 35,500 -720 Descending Los Angeles Center
Mon 02:56:22 PM 35.2906 -115.8131 228° Southwest 410 472 34,500 -1,056 Descending Los Angeles Center
Mon 02:57:24 PM 35.1961 -115.9383 227° Southwest 413 475 33,300 -1,065 Descending Los Angeles Center
Mon 02:58:26 PM 35.1156 -116.0456 227° Southwest 424 488 32,300 -968 Descending Los Angeles Center
Mon 02:59:28 PM 35.0336 -116.1531 227° Southwest 427 491 31,300 -1,065 Descending Los Angeles Center
Mon 03:00:30 PM 34.9508 -116.2617 227° Southwest 434 499 30,100 -1,296 Descending Los Angeles Center
Mon 03:01:33 PM 34.8706 -116.3656 227° Southwest 427 491 28,600 -1,536 Descending Los Angeles Center
Mon 03:02:35 PM 34.7761 -116.4897 227° Southwest 419 482 26,900 -1,597 Descending Los Angeles Center
Mon 03:03:37 PM 34.6886 -116.5964 225° Southwest 438 504 25,300 -1,839 Descending Los Angeles Center
Mon 03:04:39 PM 34.5997 -116.7050 225° Southwest 445 512 23,100 -3,532 Descending Los Angeles Center
Mon 03:05:41 PM 34.5117 -116.8111 225° Southwest 420 483 18,000 -3,600 Descending Los Angeles Center
Mon 03:06:44 PM 34.4392 -116.8992 225° Southwest 395 455 15,600 -2,352 Descending Los Angeles Center
Mon 03:07:46 PM 34.3572 -116.9972 225° Southwest 376 433 13,100 -1,258 Descending Los Angeles Center
Mon 03:08:48 PM 34.2814 -117.0900 225° Southwest 369 425 13,000 -48 Descending Los Angeles Center
Mon 03:09:50 PM 34.1794 -117.1250 196° South 370 426 13,000  Level Los Angeles Center
Mon 03:10:53 PM 34.0964 -117.1758 207° Southwest 360 414 13,000 -528 Level Los Angeles Center
Mon 03:11:55 PM 34.0083 -117.2325 208° Southwest 355 409 11,900 -1,355 Descending Los Angeles Center
Mon 03:12:57 PM 33.9211 -117.2889 208° Southwest 356 410 10,200 -1,645 Descending Los Angeles Center
Mon 03:13:59 PM 33.8469 -117.3622 219° Southwest 311 358 8,500 -1,065 Descending Los Angeles Center
Mon 03:15:01 PM 33.8069 -117.4417 239° Southwest 280 322 8,000 -240 Descending Los Angeles Center
Mon 03:16:04 PM 33.7764 -117.5147 243° Southwest 252 290 8,000 -288 Level Los Angeles Center
Mon 03:17:06 PM 33.7797 -117.5958 273° West 246 283 7,400 -823 Descending Los Angeles Center
Mon 03:18:08 PM 33.7761 -117.6731 267° West 237 273 6,300 -1,258 Descending Los Angeles Center
Mon 03:19:10 PM 33.7369 -117.7550 240° Southwest 237 273 4,800 -1,109 Descending Los Angeles Center
Mon 03:20:07 PM 33.7167 -117.8167 248° West 226 260 4,100 -513 Descending Southern California TRACON
Mon 03:21:07 PM 33.6833 -117.8833 239° Southwest 226 260 3,800 -524 Descending Southern California TRACON
Mon 03:22:13 PM 33.6833 -117.9667 270° West 233 268 3,000 -571 Descending Southern California TRACON
Mon 03:23:13 PM 33.7167 -118.0333 301° West 235 270 2,600 -737 Descending Southern California TRACON
Mon 03:24:07 PM 33.7500 -118.0833 309° West 213 245 1,600 -1,000 Descending Southern California TRACON
Mon 03:25:07 PM 33.7833 -118.1167 320° Northwest 152 175 700 -700 Descending Southern California TRACON
Mon 03:26:07 PM 33.8167 -118.1667 309° West 189 217 200 -500 Descending Southern California TRACON

Login

Don't have an account? Register now (free) for customized features, flight alerts, and more!